sensor_id;sensor_type;location;lat;lon;timestamp;pressure;altitude;pressure_sealevel;temperature
45393;BMP280;31129;44.810;10.334;2023-03-14T00:02:19;100031.16;;;13.46
45393;BMP280;31129;44.810;10.334;2023-03-14T00:04:44;100017.19;;;13.50
45393;BMP280;31129;44.810;10.334;2023-03-14T00:07:11;100002.78;;;13.38
45393;BMP280;31129;44.810;10.334;2023-03-14T00:09:36;100010.00;;;13.36
45393;BMP280;31129;44.810;10.334;2023-03-14T00:12:02;100013.22;;;13.29
45393;BMP280;31129;44.810;10.334;2023-03-14T00:14:29;100007.78;;;13.34
45393;BMP280;31129;44.810;10.334;2023-03-14T00:16:57;100013.97;;;13.29
45393;BMP280;31129;44.810;10.334;2023-03-14T00:19:23;100007.03;;;13.23
45393;BMP280;31129;44.810;10.334;2023-03-14T00:21:48;99996.84;;;13.12
45393;BMP280;31129;44.810;10.334;2023-03-14T00:24:13;100002.59;;;13.08
45393;BMP280;31129;44.810;10.334;2023-03-14T00:26:39;100003.56;;;13.11
45393;BMP280;31129;44.810;10.334;2023-03-14T00:29:05;99986.88;;;12.98
45393;BMP280;31129;44.810;10.334;2023-03-14T00:31:30;99957.78;;;12.95
45393;BMP280;31129;44.810;10.334;2023-03-14T00:33:56;99943.81;;;13.04
45393;BMP280;31129;44.810;10.334;2023-03-14T00:36:23;99952.03;;;13.04
45393;BMP280;31129;44.810;10.334;2023-03-14T00:38:52;99944.84;;;12.95
45393;BMP280;31129;44.810;10.334;2023-03-14T00:41:22;99935.34;;;12.96
45393;BMP280;31129;44.810;10.334;2023-03-14T00:43:51;99943.38;;;12.89
45393;BMP280;31129;44.810;10.334;2023-03-14T00:46:19;99944.84;;;12.95
45393;BMP280;31129;44.810;10.334;2023-03-14T00:48:45;99946.09;;;12.89
45393;BMP280;31129;44.810;10.334;2023-03-14T00:51:11;99934.41;;;12.88
45393;BMP280;31129;44.810;10.334;2023-03-14T00:53:42;99937.16;;;12.88
45393;BMP280;31129;44.810;10.334;2023-03-14T00:56:09;99932.16;;;12.81
45393;BMP280;31129;44.810;10.334;2023-03-14T00:58:36;99928.69;;;12.86
45393;BMP280;31129;44.810;10.334;2023-03-14T01:01:12;99924.94;;;12.78
45393;BMP280;31129;44.810;10.334;2023-03-14T01:03:37;99921.22;;;12.75
45393;BMP280;31129;44.810;10.334;2023-03-14T01:06:14;99916.97;;;12.80
45393;BMP280;31129;44.810;10.334;2023-03-14T01:08:42;99913.03;;;12.75
45393;BMP280;31129;44.810;10.334;2023-03-14T01:11:15;99922.22;;;12.72
45393;BMP280;31129;44.810;10.334;2023-03-14T01:13:41;99920.22;;;12.67
45393;BMP280;31129;44.810;10.334;2023-03-14T01:16:09;99928.69;;;12.69
45393;BMP280;31129;44.810;10.334;2023-03-14T01:18:37;99918.47;;;12.64
45393;BMP280;31129;44.810;10.334;2023-03-14T01:21:14;99912.28;;;12.75
45393;BMP280;31129;44.810;10.334;2023-03-14T01:23:41;99909.78;;;12.66
45393;BMP280;31129;44.810;10.334;2023-03-14T01:26:13;99903.31;;;12.52
45393;BMP280;31129;44.810;10.334;2023-03-14T01:28:39;99912.00;;;12.51
45393;BMP280;31129;44.810;10.334;2023-03-14T01:31:08;99903.78;;;12.51
45393;BMP280;31129;44.810;10.334;2023-03-14T01:33:33;99890.63;;;12.49
45393;BMP280;31129;44.810;10.334;2023-03-14T01:35:59;99875.72;;;12.44
45393;BMP280;31129;44.810;10.334;2023-03-14T01:38:31;99863.03;;;12.41
45393;BMP280;31129;44.810;10.334;2023-03-14T01:40:58;99840.16;;;12.39
45393;BMP280;31129;44.810;10.334;2023-03-14T01:43:24;99847.34;;;12.36
45393;BMP280;31129;44.810;10.334;2023-03-14T01:51:12;99838.91;;;12.29
45393;BMP280;31129;44.810;10.334;2023-03-14T01:53:39;99824.72;;;12.30
45393;BMP280;31129;44.810;10.334;2023-03-14T01:56:08;99818.28;;;12.39
45393;BMP280;31129;44.810;10.334;2023-03-14T01:58:34;99808.84;;;12.40
45393;BMP280;31129;44.810;10.334;2023-03-14T02:01:01;99797.13;;;12.23
45393;BMP280;31129;44.810;10.334;2023-03-14T02:03:27;99797.13;;;12.34
45393;BMP280;31129;44.810;10.334;2023-03-14T02:05:53;99775.00;;;12.32
45393;BMP280;31129;44.810;10.334;2023-03-14T02:08:21;99783.72;;;12.30
45393;BMP280;31129;44.810;10.334;2023-03-14T02:10:56;99798.38;;;12.33
45393;BMP280;31129;44.810;10.334;2023-03-14T02:13:32;99783.47;;;12.17
45393;BMP280;31129;44.810;10.334;2023-03-14T02:16:30;99771.03;;;12.16
45393;BMP280;31129;44.810;10.334;2023-03-14T02:19:20;99772.78;;;12.30
45393;BMP280;31129;44.810;10.334;2023-03-14T02:22:11;99757.13;;;12.20
45393;BMP280;31129;44.810;10.334;2023-03-14T02:25:13;99782.97;;;12.07
45393;BMP280;31129;44.810;10.334;2023-03-14T02:27:41;99768.06;;;12.20
45393;BMP280;31129;44.810;10.334;2023-03-14T02:30:11;99776.00;;;12.23
45393;BMP280;31129;44.810;10.334;2023-03-14T02:32:41;99764.31;;;12.06
45393;BMP280;31129;44.810;10.334;2023-03-14T02:35:11;99754.41;;;12.25
45393;BMP280;31129;44.810;10.334;2023-03-14T02:37:51;99738.22;;;12.16
45393;BMP280;31129;44.810;10.334;2023-03-14T02:40:17;99745.19;;;12.17
45393;BMP280;31129;44.810;10.334;2023-03-14T02:42:43;99731.03;;;12.19
45393;BMP280;31129;44.810;10.334;2023-03-14T02:47:38;99733.53;;;11.94
45393;BMP280;31129;44.810;10.334;2023-03-14T02:50:11;99740.72;;;12.08
45393;BMP280;31129;44.810;10.334;2023-03-14T02:52:37;99741.22;;;11.90
45393;BMP280;31129;44.810;10.334;2023-03-14T02:55:04;99753.41;;;12.00
45393;BMP280;31129;44.810;10.334;2023-03-14T02:57:31;99747.44;;;11.85
45393;BMP280;31129;44.810;10.334;2023-03-14T03:00:01;99736.50;;;11.91
45393;BMP280;31129;44.810;10.334;2023-03-14T03:02:30;99736.00;;;11.92
45393;BMP280;31129;44.810;10.334;2023-03-14T03:04:57;99740.22;;;11.88
45393;BMP280;31129;44.810;10.334;2023-03-14T03:07:23;99716.88;;;11.87
45393;BMP280;31129;44.810;10.334;2023-03-14T03:09:48;99699.25;;;11.82
45393;BMP280;31129;44.810;10.334;2023-03-14T03:12:17;99703.97;;;11.87
45393;BMP280;31129;44.810;10.334;2023-03-14T03:14:43;99693.28;;;11.78
45393;BMP280;31129;44.810;10.334;2023-03-14T03:17:08;99673.44;;;11.66
45393;BMP280;31129;44.810;10.334;2023-03-14T03:19:34;99680.38;;;11.84
45393;BMP280;31129;44.810;10.334;2023-03-14T03:21:59;99666.72;;;11.84
45393;BMP280;31129;44.810;10.334;2023-03-14T03:24:26;99642.81;;;12.01
45393;BMP280;31129;44.810;10.334;2023-03-14T03:26:51;99647.06;;;11.86
45393;BMP280;31129;44.810;10.334;2023-03-14T03:29:17;99654.28;;;11.83
45393;BMP280;31129;44.810;10.334;2023-03-14T03:31:44;99640.88;;;11.80
45393;BMP280;31129;44.810;10.334;2023-03-14T03:34:13;99662.22;;;11.87
45393;BMP280;31129;44.810;10.334;2023-03-14T03:36:40;99651.81;;;11.80
45393;BMP280;31129;44.810;10.334;2023-03-14T03:39:06;99639.59;;;11.86
45393;BMP280;31129;44.810;10.334;2023-03-14T03:41:31;99626.22;;;11.71
45393;BMP280;31129;44.810;10.334;2023-03-14T03:43:57;99606.09;;;11.74
45393;BMP280;31129;44.810;10.334;2023-03-14T03:46:23;99565.63;;;11.67
45393;BMP280;31129;44.810;10.334;2023-03-14T03:48:58;99513.47;;;11.65
45393;BMP280;31129;44.810;10.334;2023-03-14T03:51:25;99429.78;;;11.62
45393;BMP280;31129;44.810;10.334;2023-03-14T03:53:51;99426.59;;;11.53
45393;BMP280;31129;44.810;10.334;2023-03-14T03:56:23;99473.91;;;11.78
45393;BMP280;31129;44.810;10.334;2023-03-14T03:58:49;99489.66;;;11.55
45393;BMP280;31129;44.810;10.334;2023-03-14T04:01:14;99472.28;;;11.52
45393;BMP280;31129;44.810;10.334;2023-03-14T04:03:40;99504.81;;;11.45
45393;BMP280;31129;44.810;10.334;2023-03-14T04:06:08;99541.31;;;11.58
45393;BMP280;31129;44.810;10.334;2023-03-14T04:08:37;99536.09;;;11.44
45393;BMP280;31129;44.810;10.334;2023-03-14T04:11:03;99515.50;;;11.48
45393;BMP280;31129;44.810;10.334;2023-03-14T04:13:49;99502.84;;;11.39
45393;BMP280;31129;44.810;10.334;2023-03-14T04:16:18;99560.44;;;11.53
45393;BMP280;31129;44.810;10.334;2023-03-14T04:18:44;99548.00;;;11.63
45393;BMP280;31129;44.810;10.334;2023-03-14T04:21:09;99531.38;;;11.55
45393;BMP280;31129;44.810;10.334;2023-03-14T04:23:43;99526.16;;;11.57
45393;BMP280;31129;44.810;10.334;2023-03-14T04:26:09;99477.47;;;11.56
45393;BMP280;31129;44.810;10.334;2023-03-14T04:28:34;99487.91;;;11.68
45393;BMP280;31129;44.810;10.334;2023-03-14T04:31:15;99536.78;;;11.72
45393;BMP280;31129;44.810;10.334;2023-03-14T04:33:44;99509.47;;;11.72
45393;BMP280;31129;44.810;10.334;2023-03-14T04:36:09;99470.78;;;11.57
45393;BMP280;31129;44.810;10.334;2023-03-14T04:38:35;99457.59;;;11.61
45393;BMP280;31129;44.810;10.334;2023-03-14T04:41:02;99417.91;;;11.54
45393;BMP280;31129;44.810;10.334;2023-03-14T04:43:31;99438.66;;;11.80
45393;BMP280;31129;44.810;10.334;2023-03-14T04:46:04;99453.84;;;11.75
45393;BMP280;31129;44.810;10.334;2023-03-14T04:48:30;99431.28;;;11.58
45393;BMP280;31129;44.810;10.334;2023-03-14T04:50:56;99415.16;;;11.60
45393;BMP280;31129;44.810;10.334;2023-03-14T04:53:22;99379.94;;;11.51
45393;BMP280;31129;44.810;10.334;2023-03-14T04:55:55;99387.13;;;11.54
45393;BMP280;31129;44.810;10.334;2023-03-14T04:58:23;99401.50;;;11.60
45393;BMP280;31129;44.810;10.334;2023-03-14T05:00:50;99390.31;;;11.63
45393;BMP280;31129;44.810;10.334;2023-03-14T05:03:34;99409.09;;;11.78
45393;BMP280;31129;44.810;10.334;2023-03-14T05:06:19;99426.03;;;11.71
45393;BMP280;31129;44.810;10.334;2023-03-14T05:09:00;99448.22;;;11.45
45393;BMP280;31129;44.810;10.334;2023-03-14T05:11:38;99452.47;;;11.29
45393;BMP280;31129;44.810;10.334;2023-03-14T05:14:25;99446.78;;;11.27
45393;BMP280;31129;44.810;10.334;2023-03-14T05:16:56;99478.78;;;11.32
45393;BMP280;31129;44.810;10.334;2023-03-14T05:19:54;99500.16;;;11.12
45393;BMP280;31129;44.810;10.334;2023-03-14T05:22:54;99511.56;;;11.10
45393;BMP280;31129;44.810;10.334;2023-03-14T05:25:38;99506.88;;;11.05
45393;BMP280;31129;44.810;10.334;2023-03-14T05:28:25;99506.13;;;10.88
45393;BMP280;31129;44.810;10.334;2023-03-14T05:31:08;99506.13;;;10.99
45393;BMP280;31129;44.810;10.334;2023-03-14T05:33:49;99495.19;;;10.99
45393;BMP280;31129;44.810;10.334;2023-03-14T05:36:31;99515.03;;;11.11
45393;BMP280;31129;44.810;10.334;2023-03-14T05:39:25;99501.91;;;11.15
45393;BMP280;31129;44.810;10.334;2023-03-14T05:42:00;99486.78;;;11.02
45393;BMP280;31129;44.810;10.334;2023-03-14T05:44:41;99495.69;;;11.14
45393;BMP280;31129;44.810;10.334;2023-03-14T05:47:34;99518.53;;;11.17
45393;BMP280;31129;44.810;10.334;2023-03-14T05:50:22;99505.88;;;11.14
45393;BMP280;31129;44.810;10.334;2023-03-14T05:53:01;99501.16;;;11.20
45393;BMP280;31129;44.810;10.334;2023-03-14T05:55:39;99490.47;;;11.22
45393;BMP280;31129;44.810;10.334;2023-03-14T05:58:24;99491.91;;;11.39
45393;BMP280;31129;44.810;10.334;2023-03-14T06:01:07;99504.84;;;11.33
45393;BMP280;31129;44.810;10.334;2023-03-14T06:03:53;99507.09;;;11.35
45393;BMP280;31129;44.810;10.334;2023-03-14T06:06:18;99507.09;;;11.29
45393;BMP280;31129;44.810;10.334;2023-03-14T06:08:44;99505.59;;;11.28
45393;BMP280;31129;44.810;10.334;2023-03-14T06:11:10;99499.66;;;11.19
45393;BMP280;31129;44.810;10.334;2023-03-14T06:13:36;99480.78;;;11.26
45393;BMP280;31129;44.810;10.334;2023-03-14T06:16:01;99465.16;;;11.27
45393;BMP280;31129;44.810;10.334;2023-03-14T06:18:27;99462.41;;;11.27
45393;BMP280;31129;44.810;10.334;2023-03-14T06:20:54;99456.25;;;11.21
45393;BMP280;31129;44.810;10.334;2023-03-14T06:23:23;99458.97;;;11.21
45393;BMP280;31129;44.810;10.334;2023-03-14T06:26:02;99459.47;;;11.19
45393;BMP280;31129;44.810;10.334;2023-03-14T06:28:28;99447.06;;;11.18
45393;BMP280;31129;44.810;10.334;2023-03-14T06:30:59;99424.47;;;11.23
45393;BMP280;31129;44.810;10.334;2023-03-14T06:33:28;99422.75;;;11.20
45393;BMP280;31129;44.810;10.334;2023-03-14T06:35:53;99408.56;;;11.27
45393;BMP280;31129;44.810;10.334;2023-03-14T06:38:20;99411.03;;;11.36
45393;BMP280;31129;44.810;10.334;2023-03-14T06:40:49;99416.50;;;11.25
45393;BMP280;31129;44.810;10.334;2023-03-14T06:43:25;99407.81;;;11.27
45393;BMP280;31129;44.810;10.334;2023-03-14T06:45:51;99416.75;;;11.33
45393;BMP280;31129;44.810;10.334;2023-03-14T06:48:16;99408.28;;;11.36
45393;BMP280;31129;44.810;10.334;2023-03-14T06:50:51;99421.22;;;11.36
45393;BMP280;31129;44.810;10.334;2023-03-14T06:53:16;99409.78;;;11.37
45393;BMP280;31129;44.810;10.334;2023-03-14T06:55:43;99415.66;;;11.58
45393;BMP280;31129;44.810;10.334;2023-03-14T06:58:09;99405.81;;;11.91
45393;BMP280;31129;44.810;10.334;2023-03-14T07:00:40;99414.91;;;12.10
45393;BMP280;31129;44.810;10.334;2023-03-14T07:03:12;99411.09;;;12.19
45393;BMP280;31129;44.810;10.334;2023-03-14T07:05:39;99412.00;;;12.32
45393;BMP280;31129;44.810;10.334;2023-03-14T07:08:09;99416.25;;;12.28
45393;BMP280;31129;44.810;10.334;2023-03-14T07:10:35;99423.16;;;12.40
45393;BMP280;31129;44.810;10.334;2023-03-14T07:13:00;99427.22;;;12.22
45393;BMP280;31129;44.810;10.334;2023-03-14T07:15:29;99426.34;;;12.08
45393;BMP280;31129;44.810;10.334;2023-03-14T07:17:59;99429.41;;;11.94
45393;BMP280;31129;44.810;10.334;2023-03-14T07:20:26;99424.69;;;11.94
45393;BMP280;31129;44.810;10.334;2023-03-14T07:22:52;99420.47;;;11.93
45393;BMP280;31129;44.810;10.334;2023-03-14T07:25:26;99417.47;;;11.91
45393;BMP280;31129;44.810;10.334;2023-03-14T07:27:52;99420.59;;;12.06
45393;BMP280;31129;44.810;10.334;2023-03-14T07:30:18;99412.78;;;11.86
45393;BMP280;31129;44.810;10.334;2023-03-14T07:32:44;99406.28;;;11.95
45393;BMP280;31129;44.810;10.334;2023-03-14T07:35:10;99397.84;;;11.98
45393;BMP280;31129;44.810;10.334;2023-03-14T07:37:38;99391.88;;;11.94
45393;BMP280;31129;44.810;10.334;2023-03-14T07:40:04;99400.56;;;11.93
45393;BMP280;31129;44.810;10.334;2023-03-14T07:42:34;99414.28;;;11.87
45393;BMP280;31129;44.810;10.334;2023-03-14T07:45:13;99413.47;;;11.98
45393;BMP280;31129;44.810;10.334;2023-03-14T07:47:38;99415.41;;;12.08
45393;BMP280;31129;44.810;10.334;2023-03-14T07:50:04;99418.78;;;12.26
45393;BMP280;31129;44.810;10.334;2023-03-14T07:52:30;99407.34;;;12.22
45393;BMP280;31129;44.810;10.334;2023-03-14T07:54:55;99416.78;;;12.21
45393;BMP280;31129;44.810;10.334;2023-03-14T07:57:21;99402.88;;;12.24
45393;BMP280;31129;44.810;10.334;2023-03-14T07:59:46;99413.34;;;12.50
45393;BMP280;31129;44.810;10.334;2023-03-14T08:02:12;99403.44;;;12.47
45393;BMP280;31129;44.810;10.334;2023-03-14T08:04:39;99406.31;;;12.60
45393;BMP280;31129;44.810;10.334;2023-03-14T08:07:05;99410.97;;;12.65
45393;BMP280;31129;44.810;10.334;2023-03-14T08:09:30;99420.38;;;12.75
45393;BMP280;31129;44.810;10.334;2023-03-14T08:11:56;99422.13;;;12.73
45393;BMP280;31129;44.810;10.334;2023-03-14T08:14:21;99419.00;;;12.88
45393;BMP280;31129;44.810;10.334;2023-03-14T08:16:49;99405.91;;;12.99
45393;BMP280;31129;44.810;10.334;2023-03-14T08:19:15;99408.31;;;13.08
45393;BMP280;31129;44.810;10.334;2023-03-14T08:21:40;99424.13;;;13.21
45393;BMP280;31129;44.810;10.334;2023-03-14T08:24:06;99432.56;;;13.42
45393;BMP280;31129;44.810;10.334;2023-03-14T08:26:31;99430.66;;;13.55
45393;BMP280;31129;44.810;10.334;2023-03-14T08:28:57;99421.28;;;13.70
45393;BMP280;31129;44.810;10.334;2023-03-14T08:31:22;99426.00;;;13.69
45393;BMP280;31129;44.810;10.334;2023-03-14T08:33:48;99421.72;;;13.93
45393;BMP280;31129;44.810;10.334;2023-03-14T08:36:13;99418.59;;;14.02
45393;BMP280;31129;44.810;10.334;2023-03-14T08:38:38;99429.66;;;13.96
45393;BMP280;31129;44.810;10.334;2023-03-14T08:41:08;99426.38;;;13.98
45393;BMP280;31129;44.810;10.334;2023-03-14T08:43:33;99425.22;;;14.06
45393;BMP280;31129;44.810;10.334;2023-03-14T08:46:00;99436.97;;;14.07
45393;BMP280;31129;44.810;10.334;2023-03-14T08:48:26;99444.50;;;14.19
45393;BMP280;31129;44.810;10.334;2023-03-14T08:50:51;99445.63;;;14.11
45393;BMP280;31129;44.810;10.334;2023-03-14T08:53:17;99444.91;;;14.10
45393;BMP280;31129;44.810;10.334;2023-03-14T08:55:43;99448.34;;;14.29
45393;BMP280;31129;44.810;10.334;2023-03-14T08:58:09;99446.97;;;14.36
45393;BMP280;31129;44.810;10.334;2023-03-14T09:00:34;99443.50;;;14.22
45393;BMP280;31129;44.810;10.334;2023-03-14T09:02:59;99436.19;;;14.25
45393;BMP280;31129;44.810;10.334;2023-03-14T09:05:25;99440.53;;;14.34
45393;BMP280;31129;44.810;10.334;2023-03-14T09:07:50;99456.63;;;14.43
45393;BMP280;31129;44.810;10.334;2023-03-14T09:10:16;99450.97;;;14.35
45393;BMP280;31129;44.810;10.334;2023-03-14T09:12:41;99455.41;;;14.57
45393;BMP280;31129;44.810;10.334;2023-03-14T09:15:07;99452.59;;;14.76
45393;BMP280;31129;44.810;10.334;2023-03-14T09:17:33;99456.91;;;14.84
45393;BMP280;31129;44.810;10.334;2023-03-14T09:19:58;99455.97;;;14.82
45393;BMP280;31129;44.810;10.334;2023-03-14T09:22:24;99460.41;;;14.98
45393;BMP280;31129;44.810;10.334;2023-03-14T09:24:49;99466.84;;;15.00
45393;BMP280;31129;44.810;10.334;2023-03-14T09:27:15;99465.59;;;15.01
45393;BMP280;31129;44.810;10.334;2023-03-14T09:29:40;99467.28;;;14.91
45393;BMP280;31129;44.810;10.334;2023-03-14T09:32:05;99477.78;;;14.61
45393;BMP280;31129;44.810;10.334;2023-03-14T09:34:31;99469.91;;;14.39
45393;BMP280;31129;44.810;10.334;2023-03-14T09:36:56;99475.47;;;14.33
45393;BMP280;31129;44.810;10.334;2023-03-14T09:39:22;99490.13;;;14.22
45393;BMP280;31129;44.810;10.334;2023-03-14T09:41:49;99494.56;;;14.07
45393;BMP280;31129;44.810;10.334;2023-03-14T09:44:37;99495.59;;;14.04
45393;BMP280;31129;44.810;10.334;2023-03-14T09:47:11;99493.38;;;14.02
45393;BMP280;31129;44.810;10.334;2023-03-14T09:49:39;99495.69;;;13.98
45393;BMP280;31129;44.810;10.334;2023-03-14T09:52:13;99497.06;;;14.05
45393;BMP280;31129;44.810;10.334;2023-03-14T09:55:06;99495.88;;;14.00
45393;BMP280;31129;44.810;10.334;2023-03-14T09:57:36;99498.72;;;13.95
45393;BMP280;31129;44.810;10.334;2023-03-14T10:00:14;99500.84;;;14.02
45393;BMP280;31129;44.810;10.334;2023-03-14T10:02:52;99495.22;;;14.13
45393;BMP280;31129;44.810;10.334;2023-03-14T10:05:20;99485.41;;;14.17
45393;BMP280;31129;44.810;10.334;2023-03-14T10:07:46;99486.63;;;14.22
45393;BMP280;31129;44.810;10.334;2023-03-14T10:10:23;99479.19;;;14.17
45393;BMP280;31129;44.810;10.334;2023-03-14T10:12:57;99482.53;;;14.28
45393;BMP280;31129;44.810;10.334;2023-03-14T10:15:30;99483.28;;;14.61
45393;BMP280;31129;44.810;10.334;2023-03-14T10:17:59;99479.22;;;14.49
45393;BMP280;31129;44.810;10.334;2023-03-14T10:20:44;99486.94;;;14.50
45393;BMP280;31129;44.810;10.334;2023-03-14T10:25:45;99488.38;;;14.19
45393;BMP280;31129;44.810;10.334;2023-03-14T10:28:23;99484.53;;;14.28
45393;BMP280;31129;44.810;10.334;2023-03-14T10:30:49;99483.38;;;14.37
45393;BMP280;31129;44.810;10.334;2023-03-14T10:35:44;99470.00;;;14.78
45393;BMP280;31129;44.810;10.334;2023-03-14T10:38:14;99457.97;;;14.81
45393;BMP280;31129;44.810;10.334;2023-03-14T10:40:47;99453.13;;;14.87
45393;BMP280;31129;44.810;10.334;2023-03-14T10:43:17;99444.66;;;14.72
45393;BMP280;31129;44.810;10.334;2023-03-14T10:45:52;99451.84;;;14.88
45393;BMP280;31129;44.810;10.334;2023-03-14T10:48:21;99451.84;;;14.88
45393;BMP280;31129;44.810;10.334;2023-03-14T10:50:49;99433.25;;;14.81
45393;BMP280;31129;44.810;10.334;2023-03-14T10:53:18;99429.97;;;14.70
45393;BMP280;31129;44.810;10.334;2023-03-14T10:55:44;99426.38;;;14.75
45393;BMP280;31129;44.810;10.334;2023-03-14T10:58:21;99429.97;;;14.96
45393;BMP280;31129;44.810;10.334;2023-03-14T11:00:53;99427.75;;;14.94
45393;BMP280;31129;44.810;10.334;2023-03-14T11:03:23;99427.44;;;14.98
45393;BMP280;31129;44.810;10.334;2023-03-14T11:05:55;99424.81;;;15.19
45393;BMP280;31129;44.810;10.334;2023-03-14T11:11:42;99410.50;;;15.47
45393;BMP280;31129;44.810;10.334;2023-03-14T11:14:21;99420.63;;;15.52
45393;BMP280;31129;44.810;10.334;2023-03-14T11:19:53;99417.41;;;15.00
45393;BMP280;31129;44.810;10.334;2023-03-14T11:22:32;99413.09;;;14.92
45393;BMP280;31129;44.810;10.334;2023-03-14T11:25:15;99416.16;;;14.75
45393;BMP280;31129;44.810;10.334;2023-03-14T11:28:38;99415.59;;;14.77
45393;BMP280;31129;44.810;10.334;2023-03-14T11:30:53;99410.97;;;14.72
45393;BMP280;31129;44.810;10.334;2023-03-14T11:33:27;99401.97;;;14.71
45393;BMP280;31129;44.810;10.334;2023-03-14T11:36:04;99388.28;;;14.84
45393;BMP280;31129;44.810;10.334;2023-03-14T11:38:42;99390.25;;;14.97
45393;BMP280;31129;44.810;10.334;2023-03-14T11:41:36;99388.94;;;15.37
45393;BMP280;31129;44.810;10.334;2023-03-14T11:44:10;99389.47;;;15.36
45393;BMP280;31129;44.810;10.334;2023-03-14T11:46:51;99388.66;;;15.28
45393;BMP280;31129;44.810;10.334;2023-03-14T11:51:55;99378.72;;;15.25
45393;BMP280;31129;44.810;10.334;2023-03-14T11:56:55;99379.28;;;15.10
45393;BMP280;31129;44.810;10.334;2023-03-14T12:02:40;99364.16;;;15.17
45393;BMP280;31129;44.810;10.334;2023-03-14T12:10:47;99372.44;;;15.71
45393;BMP280;31129;44.810;10.334;2023-03-14T12:13:15;99374.19;;;16.03
45393;BMP280;31129;44.810;10.334;2023-03-14T12:15:49;99362.31;;;15.87
45393;BMP280;31129;44.810;10.334;2023-03-14T12:18:20;99353.19;;;16.13
45393;BMP280;31129;44.810;10.334;2023-03-14T12:20:54;99359.06;;;16.38
45393;BMP280;31129;44.810;10.334;2023-03-14T12:23:20;99356.94;;;16.23
45393;BMP280;31129;44.810;10.334;2023-03-14T12:25:45;99357.34;;;15.86
45393;BMP280;31129;44.810;10.334;2023-03-14T12:28:30;99361.50;;;15.79
45393;BMP280;31129;44.810;10.334;2023-03-14T12:30:56;99353.09;;;15.77
45393;BMP280;31129;44.810;10.334;2023-03-14T12:33:29;99356.50;;;15.91
45393;BMP280;31129;44.810;10.334;2023-03-14T12:36:00;99354.72;;;16.01
45393;BMP280;31129;44.810;10.334;2023-03-14T12:41:05;99342.06;;;15.98
45393;BMP280;31129;44.810;10.334;2023-03-14T12:43:33;99345.13;;;16.15
45393;BMP280;31129;44.810;10.334;2023-03-14T12:48:34;99344.84;;;15.77
45393;BMP280;31129;44.810;10.334;2023-03-14T12:51:04;99336.84;;;15.66
45393;BMP280;31129;44.810;10.334;2023-03-14T13:01:33;99340.00;;;15.57
45393;BMP280;31129;44.810;10.334;2023-03-14T13:04:04;99345.13;;;15.73
45393;BMP280;31129;44.810;10.334;2023-03-14T13:06:58;99336.63;;;15.85
45393;BMP280;31129;44.810;10.334;2023-03-14T13:11:53;99342.00;;;15.90
45393;BMP280;31129;44.810;10.334;2023-03-14T13:14:19;99342.06;;;15.98
45393;BMP280;31129;44.810;10.334;2023-03-14T13:16:46;99337.69;;;16.23
45393;BMP280;31129;44.810;10.334;2023-03-14T13:19:27;99339.44;;;16.13
45393;BMP280;31129;44.810;10.334;2023-03-14T13:22:02;99333.88;;;15.85
45393;BMP280;31129;44.810;10.334;2023-03-14T13:24:28;99337.56;;;15.87
45393;BMP280;31129;44.810;10.334;2023-03-14T13:26:56;99328.50;;;15.79
45393;BMP280;31129;44.810;10.334;2023-03-14T13:31:50;99315.75;;;16.10
45393;BMP280;31129;44.810;10.334;2023-03-14T13:34:17;99312.09;;;16.43
45393;BMP280;31129;44.810;10.334;2023-03-14T13:36:42;99303.97;;;16.66
45393;BMP280;31129;44.810;10.334;2023-03-14T13:39:18;99297.38;;;16.69
45393;BMP280;31129;44.810;10.334;2023-03-14T13:41:45;99305.72;;;16.92
45393;BMP280;31129;44.810;10.334;2023-03-14T13:44:17;99304.75;;;16.38
45393;BMP280;31129;44.810;10.334;2023-03-14T13:46:43;99288.38;;;16.69
45393;BMP280;31129;44.810;10.334;2023-03-14T13:49:18;99280.81;;;16.62
45393;BMP280;31129;44.810;10.334;2023-03-14T13:51:45;99291.59;;;16.95
45393;BMP280;31129;44.810;10.334;2023-03-14T13:54:18;99293.81;;;16.97
45393;BMP280;31129;44.810;10.334;2023-03-14T13:56:44;99278.28;;;16.71
45393;BMP280;31129;44.810;10.334;2023-03-14T14:01:52;99284.31;;;17.13
45393;BMP280;31129;44.810;10.334;2023-03-14T14:04:23;99286.09;;;17.11
45393;BMP280;31129;44.810;10.334;2023-03-14T14:06:58;99284.09;;;17.11
45393;BMP280;31129;44.810;10.334;2023-03-14T14:09:27;99281.50;;;17.06
45393;BMP280;31129;44.810;10.334;2023-03-14T14:12:03;99281.53;;;17.21
45393;BMP280;31129;44.810;10.334;2023-03-14T14:14:37;99286.13;;;17.26
45393;BMP280;31129;44.810;10.334;2023-03-14T14:17:10;99280.72;;;16.82
45393;BMP280;31129;44.810;10.334;2023-03-14T14:19:37;99282.09;;;16.61
45393;BMP280;31129;44.810;10.334;2023-03-14T14:22:04;99268.41;;;16.40
45393;BMP280;31129;44.810;10.334;2023-03-14T14:24:31;99280.91;;;16.41
45393;BMP280;31129;44.810;10.334;2023-03-14T14:27:10;99279.72;;;16.29
45393;BMP280;31129;44.810;10.334;2023-03-14T14:29:37;99275.41;;;16.41
45393;BMP280;31129;44.810;10.334;2023-03-14T14:32:12;99284.66;;;16.23
45393;BMP280;31129;44.810;10.334;2023-03-14T14:34:43;99280.09;;;16.33
45393;BMP280;31129;44.810;10.334;2023-03-14T14:37:18;99281.56;;;16.34
45393;BMP280;31129;44.810;10.334;2023-03-14T14:39:44;99274.66;;;16.40
45393;BMP280;31129;44.810;10.334;2023-03-14T14:42:14;99273.47;;;16.57
45393;BMP280;31129;44.810;10.334;2023-03-14T14:44:42;99280.59;;;16.52
45393;BMP280;31129;44.810;10.334;2023-03-14T14:47:15;99277.84;;;16.52
45393;BMP280;31129;44.810;10.334;2023-03-14T14:49:43;99279.06;;;16.43
45393;BMP280;31129;44.810;10.334;2023-03-14T14:52:13;99278.81;;;16.70
45393;BMP280;31129;44.810;10.334;2023-03-14T14:54:52;99284.97;;;16.91
45393;BMP280;31129;44.810;10.334;2023-03-14T14:57:41;99280.84;;;16.69
45393;BMP280;31129;44.810;10.334;2023-03-14T15:00:21;99276.66;;;16.76
45393;BMP280;31129;44.810;10.334;2023-03-14T15:02:49;99270.66;;;16.92
45393;BMP280;31129;44.810;10.334;2023-03-14T15:05:27;99267.41;;;17.24
45393;BMP280;31129;44.810;10.334;2023-03-14T15:07:54;99268.91;;;17.33
45393;BMP280;31129;44.810;10.334;2023-03-14T15:10:22;99263.38;;;17.71